sim
Sign-in with your pilot id or email,
or register
Callsign
Passwort

Schedule Details

Flight Number: RYR4643 (1)
Departure: Bratislava M. R. Stefanik Airport (LZIB) at 11:25
Arrival: Milan Bergamo Il Caravaggio International Airport (LIME) at 12:55
Route: Ryanair Passenger Schedule. Enter filed route here before submitting Pirep.

Weather Information
Getting current METAR information for LZIB 280300Z 26004KT CAVOK 12/06 Q1025
Getting current METAR information for LIME 280250Z 01005KT CAVOK 13/08 Q1026 NOSIG

Schedule Frequency

Route Map